Aviation Digital Data Service (ADDS)

Output produced by METARs form (2017 UTC 01 October 2014)
found at http://aviationweather.gov/adds/metars/
 
KATL 011937Z 0120/0224 24004KT P6SM SCT050 
     FM020100 VRB03KT P6SM SKC 
     FM021200 17005KT P6SM BKN030 
     FM021500 17006KT P6SM SCT045